Time;durP1;ratioP1;P1;durP2;ratioP2;P2;SDS_P1;SDS_P2;PMS_P1;PMS_P2;Temp;Humidity;BMP_temperature;BMP_pressure;BME280_temperature;BME280_humidity;BME280_pressure;Samples;Min_cycle;Max_cycle;Signal;HPM_P1;HPM_P2
2023/06/21 00:01:03;;;;;;;10.75;8.38;;;;;;;19.10;100.00;101141.81;4999039;28;20037;-53
2023/06/21 00:03:28;;;;;;;9.63;8.60;;;;;;;19.06;100.00;101145.00;5000158;28;20038;-53
2023/06/21 00:05:54;;;;;;;10.38;9.00;;;;;;;19.03;100.00;101138.94;4992142;28;20035;-52
2023/06/21 00:08:19;;;;;;;10.10;9.10;;;;;;;19.00;100.00;101136.56;5001188;28;20029;-53
2023/06/21 00:10:44;;;;;;;10.38;9.25;;;;;;;18.97;100.00;101141.44;4998324;28;20464;-52
2023/06/21 00:13:10;;;;;;;10.10;9.00;;;;;;;18.98;100.00;101151.19;4994634;28;20033;-52
2023/06/21 00:15:36;;;;;;;10.02;8.98;;;;;;;18.96;100.00;101155.91;4999063;28;20084;-55
2023/06/21 00:18:02;;;;;;;10.55;9.57;;;;;;;18.90;100.00;101154.72;5002496;28;20069;-52
2023/06/21 00:20:27;;;;;;;10.95;8.80;;;;;;;18.90;100.00;101161.94;4995300;28;20037;-52
2023/06/21 00:22:55;;;;;;;10.70;9.13;;;;;;;18.90;100.00;101164.63;4999306;28;20026;-52
2023/06/21 00:25:21;;;;;;;10.98;8.95;;;;;;;18.86;100.00;101161.44;4999620;28;20278;-52
2023/06/21 00:27:46;;;;;;;10.02;8.93;;;;;;;18.88;100.00;101163.97;4999954;28;20034;-53
2023/06/21 00:30:12;;;;;;;11.45;9.68;;;;;;;18.80;100.00;101156.66;5002250;28;20414;-52
2023/06/21 00:32:38;;;;;;;10.90;9.10;;;;;;;18.77;100.00;101157.84;5001080;28;20137;-51
2023/06/21 00:35:05;;;;;;;10.43;9.43;;;;;;;18.76;100.00;101158.84;5001150;28;20113;-53
2023/06/21 00:37:30;;;;;;;11.75;10.20;;;;;;;18.72;100.00;101162.00;5001425;28;20080;-51
2023/06/21 00:39:55;;;;;;;10.97;9.47;;;;;;;18.70;100.00;101158.66;4999992;28;20442;-51
2023/06/21 00:42:21;;;;;;;11.07;9.73;;;;;;;18.68;100.00;101164.19;4999603;28;20357;-52
2023/06/21 00:44:46;;;;;;;10.68;9.43;;;;;;;18.66;100.00;101158.13;4997310;28;20297;-52
2023/06/21 00:47:11;;;;;;;11.33;10.10;;;;;;;18.64;100.00;101168.22;5002240;28;20065;-53
2023/06/21 00:49:36;;;;;;;10.57;9.57;;;;;;;18.66;100.00;101160.84;5000014;28;20288;-53
2023/06/21 00:52:05;;;;;;;11.15;9.60;;;;;;;18.65;100.00;101170.75;4999891;28;20811;-54
2023/06/21 00:54:32;;;;;;;12.07;10.23;;;;;;;18.57;100.00;101157.28;4994031;28;20100;-52
2023/06/21 00:56:58;;;;;;;11.18;9.98;;;;;;;18.61;100.00;101173.94;5001290;28;20030;-52
2023/06/21 00:59:27;;;;;;;11.00;9.88;;;;;;;18.58;100.00;101174.25;5000534;28;20471;-52
2023/06/21 01:02:00;;;;;;;11.60;9.63;;;;;;;18.60;100.00;101169.53;4999038;28;20625;-51
2023/06/21 01:04:29;;;;;;;10.80;9.68;;;;;;;18.54;100.00;101164.84;5002411;28;20038;-53
2023/06/21 01:07:07;;;;;;;10.98;9.73;;;;;;;18.58;100.00;101168.88;5001811;28;20045;-52
2023/06/21 01:09:47;;;;;;;10.45;9.48;;;;;;;18.51;100.00;101171.38;5000042;28;20088;-54
2023/06/21 01:12:50;;;;;;;9.88;8.98;;;;;;;18.59;100.00;101173.25;5000846;28;20030;-53
2023/06/21 01:15:23;;;;;;;11.07;9.77;;;;;;;18.51;100.00;101166.00;4996371;28;20057;-53
2023/06/21 01:17:51;;;;;;;10.43;9.45;;;;;;;18.54;100.00;101176.44;4998556;28;20068;-53
2023/06/21 01:20:24;;;;;;;10.50;8.90;;;;;;;18.57;100.00;101175.25;5000544;28;20025;-54
2023/06/21 01:22:55;;;;;;;10.63;9.13;;;;;;;18.54;100.00;101172.91;5000217;28;20113;-53
2023/06/21 01:25:45;;;;;;;10.90;9.77;;;;;;;18.58;100.00;101179.63;4996141;28;20029;-52
2023/06/21 01:28:30;;;;;;;10.98;9.88;;;;;;;18.58;100.00;101185.00;4994569;28;20022;-53
2023/06/21 01:30:58;;;;;;;10.73;9.65;;;;;;;18.52;100.00;101180.25;4997513;28;20046;-54
2023/06/21 01:33:25;;;;;;;10.85;9.75;;;;;;;18.53;100.00;101184.66;4997801;28;20589;-53
2023/06/21 01:35:52;;;;;;;10.57;9.48;;;;;;;18.54;100.00;101184.50;5002605;28;20026;-54
2023/06/21 01:38:18;;;;;;;10.95;9.75;;;;;;;18.47;100.00;101191.53;5002549;28;20475;-52
2023/06/21 01:40:44;;;;;;;11.18;9.98;;;;;;;18.48;100.00;101195.91;4999793;28;20054;-54
2023/06/21 01:43:10;;;;;;;10.27;9.27;;;;;;;18.48;100.00;101195.91;5001993;28;20069;-52
2023/06/21 01:45:35;;;;;;;10.60;9.50;;;;;;;18.47;100.00;101203.13;4999947;28;20292;-53
2023/06/21 01:48:02;;;;;;;11.98;10.25;;;;;;;18.42;100.00;101186.63;4995631;28;20019;-52
2023/06/21 01:50:29;;;;;;;12.25;10.98;;;;;;;18.45;100.00;101191.69;4993777;28;20121;-52
2023/06/21 01:52:55;;;;;;;10.98;9.98;;;;;;;18.41;100.00;101184.94;5001057;28;20030;-54
2023/06/21 01:55:22;;;;;;;11.43;10.30;;;;;;;18.43;100.00;101191.00;4997677;28;20033;-53
2023/06/21 01:57:47;;;;;;;12.38;10.18;;;;;;;18.44;100.00;101194.53;4998417;28;20027;-53
2023/06/21 02:00:17;;;;;;;11.02;9.23;;;;;;;18.39;100.00;101202.25;4998225;28;20093;-51
2023/06/21 02:02:47;;;;;;;11.38;10.27;;;;;;;18.36;100.00;101181.88;5000021;28;20061;-53
2023/06/21 02:05:15;;;;;;;10.85;9.75;;;;;;;18.42;100.00;101204.63;4995198;28;20026;-52
2023/06/21 02:07:41;;;;;;;12.18;10.75;;;;;;;18.40;100.00;101206.59;4997773;28;20586;-52
2023/06/21 02:10:07;;;;;;;12.05;10.93;;;;;;;18.38;100.00;101208.63;5000034;28;20104;-52
2023/06/21 02:12:35;;;;;;;12.05;10.82;;;;;;;18.39;100.00;101211.16;5001372;28;20438;-51
2023/06/21 02:15:01;;;;;;;12.27;10.70;;;;;;;18.40;100.00;101214.69;4998793;28;20104;-54
2023/06/21 02:17:28;;;;;;;12.23;10.77;;;;;;;18.34;100.00;101205.41;4996982;28;20031;-53
2023/06/21 02:19:55;;;;;;;11.43;10.30;;;;;;;18.33;100.00;101216.31;4998900;28;20109;-53
2023/06/21 02:22:20;;;;;;;12.20;10.90;;;;;;;18.29;100.00;101223.88;5002940;28;20476;-54
2023/06/21 02:24:45;;;;;;;12.40;10.93;;;;;;;18.31;100.00;101225.38;4999054;28;20032;-54
2023/06/21 02:27:11;;;;;;;11.60;10.35;;;;;;;18.29;100.00;101226.56;4997982;28;20038;-54
2023/06/21 02:29:36;;;;;;;13.30;10.90;;;;;;;18.32;100.00;101226.25;4995633;28;20022;-52
2023/06/21 02:32:01;;;;;;;12.23;10.63;;;;;;;18.29;100.00;101226.56;4998308;28;20812;-52
2023/06/21 02:34:26;;;;;;;12.57;10.88;;;;;;;18.27;100.00;101234.78;4996832;28;20270;-52
2023/06/21 02:36:55;;;;;;;13.83;11.27;;;;;;;18.26;100.00;101241.16;4999505;28;20026;-51
2023/06/21 02:39:24;;;;;;;13.27;11.35;;;;;;;18.26;100.00;101246.53;4992538;28;20344;-52
2023/06/21 02:41:51;;;;;;;;;;;;;;;18.36;100.00;101243.75;5000953;28;20026;-51
2023/06/21 02:44:16;;;;;;;12.88;11.07;;;;;;;18.24;100.00;101239.63;4995774;28;20302;-53
2023/06/21 02:46:42;;;;;;;12.35;11.13;;;;;;;18.17;100.00;101244.81;4998021;28;20034;-51
2023/06/21 02:49:07;;;;;;;12.40;10.90;;;;;;;18.12;100.00;101245.28;4998322;28;20045;-53
2023/06/21 02:51:32;;;;;;;13.20;11.90;;;;;;;18.11;100.00;101240.88;4999571;28;20598;-52
2023/06/21 02:53:57;;;;;;;13.37;11.13;;;;;;;18.08;100.00;101259.19;4995147;28;20018;-55
2023/06/21 02:56:23;;;;;;;12.50;11.20;;;;;;;18.10;100.00;101257.16;5000434;28;20820;-52
2023/06/21 02:58:48;;;;;;;13.10;11.57;;;;;;;18.04;100.00;101261.34;4996215;28;20266;-52
2023/06/21 03:01:15;;;;;;;11.98;10.77;;;;;;;18.06;100.00;101263.88;4996570;28;20472;-52
2023/06/21 03:03:44;;;;;;;13.27;10.98;;;;;;;18.07;100.00;101266.41;5001814;28;20027;-55
2023/06/21 03:06:11;;;;;;;12.80;11.60;;;;;;;18.05;100.00;101272.91;5003568;28;20395;-55
2023/06/21 03:08:38;;;;;;;12.63;11.32;;;;;;;18.03;100.00;101270.38;4998768;28;20109;-52
2023/06/21 03:11:04;;;;;;;12.93;11.55;;;;;;;17.98;100.00;101272.69;5003235;28;20106;-54
2023/06/21 03:13:29;;;;;;;12.52;11.20;;;;;;;18.07;100.00;101284.38;4998618;28;20096;-54
2023/06/21 03:15:55;;;;;;;13.53;12.13;;;;;;;18.01;100.00;101291.22;4999859;28;20471;-53
2023/06/21 03:18:20;;;;;;;13.77;10.75;;;;;;;18.00;100.00;101294.06;4998913;28;20287;-51
2023/06/21 03:20:49;;;;;;;12.95;11.63;;;;;;;17.99;100.00;101298.59;4996548;28;20460;-53
2023/06/21 03:23:15;;;;;;;14.38;11.90;;;;;;;17.97;100.00;101297.03;4998990;28;20046;-54
2023/06/21 03:25:41;;;;;;;15.25;12.65;;;;;;;18.00;100.00;101302.13;5002057;28;20064;-51
2023/06/21 03:28:07;;;;;;;14.02;12.63;;;;;;;17.98;100.00;101304.13;4999334;28;20054;-53
2023/06/21 03:30:32;;;;;;;13.97;11.73;;;;;;;17.95;100.00;101289.13;5002321;28;20491;-52
2023/06/21 03:32:57;;;;;;;13.27;11.77;;;;;;;17.96;100.00;101295.38;4997005;28;20292;-52
2023/06/21 03:35:24;;;;;;;14.37;12.87;;;;;;;17.93;100.00;101301.88;5004067;28;20284;-53
2023/06/21 03:37:50;;;;;;;12.98;11.73;;;;;;;17.95;100.00;101302.56;4998220;28;20774;-51
2023/06/21 03:40:16;;;;;;;14.55;12.55;;;;;;;17.96;100.00;101295.38;5001485;28;20487;-52
2023/06/21 03:42:43;;;;;;;15.40;12.50;;;;;;;17.95;100.00;101297.19;4998843;28;20037;-52
2023/06/21 03:45:09;;;;;;;13.93;12.52;;;;;;;18.00;100.00;101294.06;5002390;28;20030;-52
2023/06/21 03:47:36;;;;;;;14.93;12.63;;;;;;;17.99;100.00;101295.91;4997545;28;20031;-52
2023/06/21 03:50:02;;;;;;;14.65;13.13;;;;;;;17.99;100.00;101293.22;5002204;28;21187;-52
2023/06/21 03:52:27;;;;;;;15.52;13.35;;;;;;;18.02;100.00;101292.03;4995730;28;20290;-53
2023/06/21 03:54:52;;;;;;;15.05;12.23;;;;;;;18.02;100.00;101295.59;5002107;28;20034;-52
2023/06/21 03:57:18;;;;;;;14.50;13.07;;;;;;;18.02;100.00;101302.78;4993623;28;20026;-53
2023/06/21 03:59:43;;;;;;;14.48;12.98;;;;;;;18.08;100.00;101304.88;5000965;28;20033;-51
2023/06/21 04:02:08;;;;;;;14.87;13.37;;;;;;;18.10;100.00;101309.09;4999170;28;20025;-54
2023/06/21 04:04:34;;;;;;;15.25;12.15;;;;;;;18.11;100.00;101312.63;5001625;28;20281;-52
2023/06/21 04:06:59;;;;;;;14.82;13.32;;;;;;;18.14;100.00;101316.88;4995291;28;20026;-54
2023/06/21 04:09:24;;;;;;;14.50;13.05;;;;;;;18.17;100.00;101313.84;5001747;28;20091;-53
2023/06/21 04:11:49;;;;;;;15.23;13.50;;;;;;;18.20;100.00;101322.47;4997630;28;20026;-52
2023/06/21 04:14:15;;;;;;;16.07;14.33;;;;;;;18.20;100.00;101325.16;5001425;28;20423;-54
2023/06/21 04:16:41;;;;;;;16.05;14.48;;;;;;;18.22;100.00;101328.53;4998866;28;20282;-52
2023/06/21 04:19:06;;;;;;;15.00;13.50;;;;;;;18.23;100.00;101340.13;5002033;28;20045;-52
2023/06/21 04:21:31;;;;;;;16.13;14.33;;;;;;;18.22;100.00;101344.66;5004917;28;20506;-52
2023/06/21 04:23:57;;;;;;;15.30;13.90;;;;;;;18.25;100.00;101343.47;5001776;28;20283;-51
2023/06/21 04:26:22;;;;;;;16.50;13.90;;;;;;;18.28;100.00;101345.88;4997145;28;20339;-51
2023/06/21 04:28:48;;;;;;;16.60;14.90;;;;;;;18.27;100.00;101338.81;5001420;28;20030;-51
2023/06/21 04:31:13;;;;;;;18.50;15.23;;;;;;;18.24;100.00;101348.03;4994329;28;20046;-52
2023/06/21 04:33:39;;;;;;;17.27;14.82;;;;;;;18.27;100.00;101350.41;5003758;28;20037;-53
2023/06/21 04:36:04;;;;;;;16.63;14.82;;;;;;;18.26;100.00;101354.09;4996589;28;20034;-55
2023/06/21 04:38:29;;;;;;;17.20;14.68;;;;;;;18.29;100.00;101355.63;5003845;28;20117;-51
2023/06/21 04:40:55;;;;;;;16.92;15.07;;;;;;;18.30;100.00;101358.16;5001978;28;20027;-54
2023/06/21 04:43:24;;;;;;;15.73;14.13;;;;;;;18.38;100.00;101365.44;5000597;28;20105;-52
2023/06/21 04:45:50;;;;;;;18.65;15.93;;;;;;;18.40;100.00;101366.16;4999835;28;20671;-51
2023/06/21 04:48:15;;;;;;;18.67;16.80;;;;;;;18.47;100.00;101363.69;5002477;28;20049;-54
2023/06/21 04:50:45;;;;;;;17.67;15.77;;;;;;;18.53;100.00;101362.19;4999262;28;20022;-51
2023/06/21 04:53:13;;;;;;;17.48;15.68;;;;;;;18.62;100.00;101350.50;4998354;28;20022;-52
2023/06/21 04:55:42;;;;;;;20.93;16.57;;;;;;;18.72;100.00;101353.06;4999412;28;20030;-53
2023/06/21 04:58:08;;;;;;;18.10;15.88;;;;;;;18.82;100.00;101351.13;5000245;28;20022;-54
2023/06/21 05:00:34;;;;;;;17.95;16.13;;;;;;;18.95;100.00;101356.09;4997351;28;20069;-52
2023/06/21 05:03:00;;;;;;;18.13;16.38;;;;;;;19.00;100.00;101362.69;4992133;28;20042;-51
2023/06/21 05:05:25;;;;;;;19.63;17.52;;;;;;;19.03;100.00;101365.06;4999929;28;20093;-51
2023/06/21 05:07:50;;;;;;;18.10;16.17;;;;;;;19.12;100.00;101370.47;5001844;28;20053;-54
2023/06/21 05:10:16;;;;;;;17.77;15.98;;;;;;;19.15;100.00;101378.22;4998912;28;20018;-54
2023/06/21 05:12:41;;;;;;;20.00;16.77;;;;;;;19.21;100.00;101382.97;4999842;28;20057;-52
2023/06/21 05:15:07;;;;;;;19.50;17.58;;;;;;;19.23;100.00;101376.44;4998157;28;20026;-53
2023/06/21 05:17:35;;;;;;;19.90;17.55;;;;;;;19.32;100.00;101379.19;4999831;28;20037;-51
2023/06/21 05:20:03;;;;;;;19.85;17.13;;;;;;;19.44;100.00;101388.63;4998482;28;20113;-51
2023/06/21 05:22:29;;;;;;;19.70;16.88;;;;;;;19.44;100.00;101391.34;4996356;28;20112;-51
2023/06/21 05:24:54;;;;;;;20.47;17.97;;;;;;;19.49;100.00;101391.69;4983267;28;20023;-53
2023/06/21 05:27:19;;;;;;;19.52;17.52;;;;;;;19.51;100.00;101397.75;5001595;28;20276;-51
2023/06/21 05:29:44;;;;;;;19.50;17.50;;;;;;;19.56;100.00;101408.03;4996474;28;20502;-52
2023/06/21 05:32:10;;;;;;;18.93;17.03;;;;;;;19.57;100.00;101401.66;4995987;28;20041;-52
2023/06/21 05:34:35;;;;;;;19.00;17.05;;;;;;;19.59;100.00;101396.94;5002795;28;20296;-54
2023/06/21 05:37:01;;;;;;;19.38;17.23;;;;;;;19.57;100.00;101386.31;4997599;28;20029;-57
2023/06/21 05:39:26;;;;;;;19.45;17.55;;;;;;;19.69;100.00;101394.13;5004095;28;20014;-52
2023/06/21 05:41:51;;;;;;;22.13;18.80;;;;;;;19.69;100.00;101391.41;4998457;28;20379;-50
2023/06/21 05:44:16;;;;;;;19.87;17.83;;;;;;;19.83;100.00;101403.44;4996370;28;20343;-51
2023/06/21 05:46:42;;;;;;;19.00;16.98;;;;;;;19.96;100.00;101407.34;4996130;28;20631;-51
2023/06/21 05:49:07;;;;;;;20.83;18.70;;;;;;;20.04;100.00;101414.59;4996594;28;20109;-52
2023/06/21 05:51:32;;;;;;;19.38;17.50;;;;;;;20.20;100.00;101413.81;4998008;28;20114;-51
2023/06/21 05:53:58;;;;;;;18.92;17.08;;;;;;;20.28;100.00;101418.34;4985979;28;20081;-50
2023/06/21 05:56:26;;;;;;;18.80;16.80;;;;;;;20.43;100.00;101421.22;4998240;28;20033;-50
2023/06/21 05:58:52;;;;;;;18.85;16.58;;;;;;;20.50;100.00;101430.31;5002374;28;20434;-50
2023/06/21 06:01:17;;;;;;;21.13;17.35;;;;;;;20.55;100.00;101435.22;4995119;28;20026;-49
2023/06/21 06:03:43;;;;;;;19.83;17.73;;;;;;;20.64;100.00;101436.94;4994964;28;20035;-48
2023/06/21 06:06:08;;;;;;;20.40;17.63;;;;;;;20.74;100.00;101440.31;5000478;28;20070;-51
2023/06/21 06:08:34;;;;;;;19.08;17.17;;;;;;;20.86;100.00;101440.78;4997435;28;20301;-52
2023/06/21 06:10:59;;;;;;;19.48;17.48;;;;;;;21.01;100.00;101440.94;4999235;28;20088;-49
2023/06/21 06:13:24;;;;;;;18.83;17.03;;;;;;;21.15;100.00;101451.03;4995239;28;20037;-50
2023/06/21 06:15:50;;;;;;;19.13;17.15;;;;;;;21.23;100.00;101437.53;4999059;28;20756;-49
2023/06/21 06:18:15;;;;;;;18.55;16.52;;;;;;;21.32;99.23;101442.91;5000251;28;20026;-49
2023/06/21 06:20:43;;;;;;;17.55;15.80;;;;;;;21.38;98.72;101445.75;4994595;28;20041;-49
2023/06/21 06:23:12;;;;;;;18.13;16.23;;;;;;;21.61;99.14;101445.00;4997738;28;20062;-49
2023/06/21 06:25:37;;;;;;;;;;;;;;;21.75;99.22;101448.81;4996988;28;20398;-50
2023/06/21 06:28:02;;;;;;;14.57;13.07;;;;;;;21.83;93.43;101453.34;4991005;28;20015;-49
2023/06/21 06:30:27;;;;;;;14.90;13.40;;;;;;;22.05;93.53;101462.50;4996517;28;20285;-51
2023/06/21 06:32:53;;;;;;;15.30;13.70;;;;;;;22.10;93.36;101470.94;4994259;28;20029;-50
2023/06/21 06:35:18;;;;;;;15.43;13.13;;;;;;;22.28;89.58;101478.78;4996712;28;20034;-50
2023/06/21 06:37:44;;;;;;;12.52;11.23;;;;;;;22.44;83.80;101476.00;5000595;28;20874;-49
2023/06/21 06:40:09;;;;;;;14.05;11.77;;;;;;;22.58;87.20;101481.63;5003148;28;20037;-50
2023/06/21 06:42:35;;;;;;;11.63;10.52;;;;;;;22.86;85.94;101485.44;5004291;28;20034;-51
2023/06/21 06:45:00;;;;;;;11.73;9.83;;;;;;;22.95;84.46;101486.25;4998764;28;20165;-50
2023/06/21 06:47:28;;;;;;;10.07;9.07;;;;;;;23.19;80.84;101496.00;5001337;28;20796;-52
2023/06/21 06:49:53;;;;;;;11.70;8.27;;;;;;;23.34;80.26;101498.75;5004342;28;20679;-50
2023/06/21 06:52:18;;;;;;;13.48;8.88;;;;;;;23.44;78.77;101504.72;5006052;28;20057;-50
2023/06/21 06:54:44;;;;;;;9.30;8.40;;;;;;;23.33;78.80;101513.34;5002360;28;20105;-49
2023/06/21 06:57:09;;;;;;;9.40;8.43;;;;;;;23.31;77.63;101507.22;5005516;28;20289;-50
2023/06/21 06:59:34;;;;;;;9.48;8.57;;;;;;;23.24;78.93;101522.56;5000616;28;20051;-49
2023/06/21 07:02:00;;;;;;;9.70;8.55;;;;;;;23.30;78.31;101516.41;4998802;28;20034;-50
2023/06/21 07:04:28;;;;;;;10.02;8.85;;;;;;;23.46;78.51;101516.25;5004804;28;20022;-50
2023/06/21 07:06:53;;;;;;;12.43;9.38;;;;;;;23.60;75.70;101513.72;5003400;28;20026;-50
2023/06/21 07:09:19;;;;;;;10.70;9.00;;;;;;;23.81;77.08;101516.50;4995883;28;20387;-50
2023/06/21 07:11:44;;;;;;;9.77;8.77;;;;;;;24.02;77.06;101509.47;4999626;28;20029;-49
2023/06/21 07:14:10;;;;;;;9.98;8.95;;;;;;;24.32;74.97;101512.13;4999246;28;20026;-49
2023/06/21 07:16:39;;;;;;;11.88;8.93;;;;;;;24.57;74.46;101512.59;5001442;28;20083;-48
2023/06/21 07:19:04;;;;;;;11.38;10.23;;;;;;;24.81;73.70;101515.97;5000768;28;20072;-49
2023/06/21 07:21:30;;;;;;;12.23;10.93;;;;;;;24.90;71.83;101512.91;5002319;28;20030;-50
2023/06/21 07:23:55;;;;;;;13.87;10.20;;;;;;;25.07;70.91;101523.50;5001121;28;20266;-51
2023/06/21 07:26:20;;;;;;;12.53;10.97;;;;;;;24.96;71.14;101514.00;5000742;28;20293;-50
2023/06/21 07:28:46;;;;;;;12.55;9.95;;;;;;;25.08;69.75;101520.59;5000269;28;20286;-49
2023/06/21 07:31:11;;;;;;;11.43;10.30;;;;;;;25.32;70.98;101514.94;4997182;28;20054;-50
2023/06/21 07:33:37;;;;;;;12.57;11.03;;;;;;;25.53;70.25;101516.72;5001023;28;20849;-49
2023/06/21 07:36:03;;;;;;;12.10;10.02;;;;;;;25.76;66.78;101522.69;5001548;28;20358;-50
2023/06/21 07:38:28;;;;;;;12.20;9.45;;;;;;;25.84;65.97;101516.25;5001621;28;20022;-49
2023/06/21 07:40:54;;;;;;;10.32;8.98;;;;;;;26.16;63.39;101522.91;5002094;28;20543;-49
2023/06/21 07:43:20;;;;;;;12.18;9.07;;;;;;;26.37;64.97;101527.34;4997131;28;20019;-50
2023/06/21 07:45:45;;;;;;;13.88;9.13;;;;;;;26.67;62.37;101534.34;5000804;28;20045;-51
2023/06/21 07:48:10;;;;;;;9.75;8.85;;;;;;;26.60;60.83;101537.03;4998883;28;20434;-49
2023/06/21 07:50:36;;;;;;;10.25;9.15;;;;;;;26.68;60.93;101534.16;5001209;28;20060;-49
2023/06/21 07:53:01;;;;;;;13.00;9.45;;;;;;;26.86;61.59;101532.69;4998186;28;20391;-51
2023/06/21 07:55:27;;;;;;;10.70;9.23;;;;;;;27.26;60.06;101538.97;4998781;28;20040;-48
2023/06/21 07:57:52;;;;;;;11.25;9.23;;;;;;;27.53;58.30;101536.22;5001184;28;20065;-49
2023/06/21 08:00:18;;;;;;;9.82;8.93;;;;;;;27.70;60.56;101539.31;5003126;28;20102;-49
2023/06/21 08:02:44;;;;;;;10.35;9.35;;;;;;;27.54;59.42;101534.31;4997144;28;20464;-47
2023/06/21 08:05:09;;;;;;;9.30;8.38;;;;;;;27.54;57.18;101543.34;5002195;28;20072;-47
2023/06/21 08:07:34;;;;;;;8.65;7.75;;;;;;;27.78;57.80;101539.09;4997531;28;20053;-48
2023/06/21 08:10:00;;;;;;;8.40;7.60;;;;;;;28.00;55.29;101542.38;5001217;28;20459;-47
2023/06/21 08:12:25;;;;;;;7.60;6.90;;;;;;;28.30;55.10;101547.28;4999912;28;20030;-48
2023/06/21 08:14:50;;;;;;;7.60;5.88;;;;;;;28.15;51.63;101549.47;5000610;28;20026;-48
2023/06/21 08:17:16;;;;;;;6.63;5.73;;;;;;;28.40;50.10;101549.53;4999061;28;20018;-47
2023/06/21 08:19:41;;;;;;;9.07;6.77;;;;;;;28.49;53.99;101544.66;5000984;28;20630;-49
2023/06/21 08:22:06;;;;;;;7.70;6.97;;;;;;;28.66;50.94;101553.19;5005089;28;20075;-48
2023/06/21 08:24:33;;;;;;;8.75;7.47;;;;;;;28.69;52.36;101548.09;5000252;28;20053;-48
2023/06/21 08:26:58;;;;;;;7.47;6.78;;;;;;;28.96;52.37;101542.44;5002002;28;20031;-48
2023/06/21 08:29:23;;;;;;;8.75;7.00;;;;;;;29.27;50.53;101544.28;4999308;28;20034;-49
2023/06/21 08:31:49;;;;;;;7.80;5.33;;;;;;;29.60;50.81;101547.75;5001233;28;20124;-48
2023/06/21 08:34:14;;;;;;;9.35;6.00;;;;;;;29.77;47.07;101550.72;5001076;28;20290;-48
2023/06/21 08:36:39;;;;;;;7.13;6.17;;;;;;;30.00;47.28;101547.31;5001454;28;20032;-48
2023/06/21 08:39:05;;;;;;;7.30;6.23;;;;;;;29.82;50.52;101548.16;5002979;28;20305;-50
2023/06/21 08:41:31;;;;;;;7.10;6.50;;;;;;;30.27;47.86;101545.03;4997961;28;20376;-49
2023/06/21 08:43:56;;;;;;;9.10;6.20;;;;;;;30.56;47.28;101553.50;5001318;28;20288;-49
2023/06/21 08:46:25;;;;;;;7.00;6.20;;;;;;;30.62;46.34;101547.09;4997465;28;20023;-48
2023/06/21 08:48:51;;;;;;;6.88;6.00;;;;;;;30.63;45.37;101544.09;5000808;28;20101;-51
2023/06/21 08:51:20;;;;;;;7.05;6.10;;;;;;;30.81;45.77;101545.13;4997914;28;20022;-50
2023/06/21 08:53:55;;;;;;;5.93;5.32;;;;;;;31.31;44.61;101544.69;4999789;28;20101;-49
2023/06/21 08:56:23;;;;;;;7.53;5.78;;;;;;;31.46;44.32;101551.59;4998922;28;20471;-49
2023/06/21 08:59:23;;;;;;;5.07;4.68;;;;;;;31.70;46.16;101556.00;4999956;28;20034;-49
2023/06/21 09:02:14;;;;;;;5.18;4.68;;;;;;;31.72;41.87;101556.59;4998124;28;20084;-50
2023/06/21 09:04:47;;;;;;;7.97;5.20;;;;;;;31.63;42.80;101552.56;4978759;28;20046;-49
2023/06/21 09:07:13;;;;;;;4.78;4.18;;;;;;;31.62;39.49;101561.03;4996976;28;20449;-48
2023/06/21 09:09:41;;;;;;;4.30;3.92;;;;;;;31.83;40.75;101557.66;5000952;28;20026;-48
2023/06/21 09:12:07;;;;;;;5.10;4.47;;;;;;;31.94;39.78;101552.38;4994514;28;20054;-49
2023/06/21 09:14:33;;;;;;;5.25;3.50;;;;;;;32.19;38.54;101552.06;5000457;28;20064;-47
2023/06/21 09:17:01;;;;;;;3.70;3.40;;;;;;;31.84;38.72;101555.72;5000405;28;20035;-48
2023/06/21 09:19:27;;;;;;;4.00;3.60;;;;;;;32.02;39.81;101557.47;4996889;28;20026;-48
2023/06/21 09:21:55;;;;;;;3.75;3.10;;;;;;;32.13;36.91;101555.81;4996753;28;20125;-47
2023/06/21 09:24:21;;;;;;;3.50;3.17;;;;;;;32.02;38.96;101557.47;4995278;28;20113;-46
2023/06/21 09:26:47;;;;;;;3.97;3.45;;;;;;;32.14;39.33;101558.28;4995313;28;20110;-48
2023/06/21 09:29:12;;;;;;;3.60;3.30;;;;;;;32.42;38.17;101551.94;4999788;28;20038;-47
2023/06/21 09:31:37;;;;;;;4.93;3.70;;;;;;;32.32;36.94;101556.44;4997159;28;20141;-48
2023/06/21 09:34:02;;;;;;;6.13;4.03;;;;;;;32.27;38.33;101562.66;4999087;28;20858;-50
2023/06/21 09:36:28;;;;;;;5.43;3.60;;;;;;;32.34;36.77;101566.09;4992166;28;20292;-48
2023/06/21 09:39:06;;;;;;;4.45;3.58;;;;;;;32.62;38.84;101567.19;5001615;28;20362;-47
2023/06/21 09:41:31;;;;;;;3.05;2.78;;;;;;;32.46;35.63;101566.88;5001723;28;20041;-47
2023/06/21 09:43:58;;;;;;;3.55;3.17;;;;;;;32.53;36.44;101569.47;4997009;28;20022;-46
2023/06/21 09:46:24;;;;;;;4.22;3.63;;;;;;;32.65;37.04;101572.19;4999683;28;20046;-49
2023/06/21 09:48:49;;;;;;;4.20;3.90;;;;;;;32.85;35.35;101565.38;4999387;28;20488;-47
2023/06/21 09:51:14;;;;;;;4.90;3.73;;;;;;;32.80;36.80;101572.44;4995788;28;20014;-47
2023/06/21 09:53:44;;;;;;;5.18;3.80;;;;;;;32.81;36.91;101563.13;4999251;28;20272;-48
2023/06/21 09:56:12;;;;;;;4.90;3.72;;;;;;;33.13;35.85;101564.44;4995403;28;20061;-47
2023/06/21 09:58:40;;;;;;;3.08;2.75;;;;;;;33.26;34.71;101557.78;4995023;28;20527;-50
2023/06/21 10:01:07;;;;;;;4.50;2.95;;;;;;;33.31;35.83;101569.72;4998416;28;20022;-47
2023/06/21 10:03:33;;;;;;;4.30;2.40;;;;;;;33.51;34.74;101571.09;4997845;28;20025;-47
2023/06/21 10:06:01;;;;;;;3.85;2.63;;;;;;;33.32;33.52;101576.88;4998314;28;20062;-46
2023/06/21 10:08:36;;;;;;;5.25;3.20;;;;;;;33.42;34.09;101573.44;4994936;28;20475;-46
2023/06/21 10:11:03;;;;;;;6.30;3.55;;;;;;;33.64;33.54;101584.50;5000552;28;20033;-46
2023/06/21 10:13:33;;;;;;;9.07;3.90;;;;;;;33.88;34.10;101584.28;5001998;28;20022;-47
2023/06/21 10:16:02;;;;;;;18.65;5.25;;;;;;;33.74;34.26;101586.56;5003260;28;20040;-47
2023/06/21 10:18:28;;;;;;;9.15;4.60;;;;;;;33.45;33.90;101589.47;5000438;28;20380;-48
2023/06/21 10:21:01;;;;;;;4.88;4.18;;;;;;;33.66;34.56;101598.84;5003653;28;20057;-48
2023/06/21 10:23:32;;;;;;;5.82;4.10;;;;;;;33.69;34.55;101606.66;5002341;28;20037;-46
2023/06/21 10:26:11;;;;;;;22.33;5.47;;;;;;;33.76;34.97;101603.69;5001091;28;20030;-47
2023/06/21 10:28:41;;;;;;;20.50;3.78;;;;;;;33.90;33.74;101598.63;5002155;28;20041;-47
2023/06/21 10:31:11;;;;;;;3.10;2.20;;;;;;;34.11;32.05;101605.25;5004971;28;20041;-46
2023/06/21 10:33:37;;;;;;;3.47;3.17;;;;;;;34.01;32.67;101603.19;5003199;28;20035;-47
2023/06/21 10:36:04;;;;;;;3.45;2.90;;;;;;;33.96;32.16;101616.91;4997345;28;20037;-47
2023/06/21 10:38:47;;;;;;;4.10;3.67;;;;;;;33.63;34.71;101604.03;4998354;28;20121;-47
2023/06/21 10:41:16;;;;;;;6.07;4.00;;;;;;;33.37;33.88;101610.03;5003622;28;20034;-46
2023/06/21 10:43:43;;;;;;;6.40;3.63;;;;;;;32.88;34.76;101611.66;5001539;28;20100;-47
2023/06/21 10:46:10;;;;;;;4.63;3.30;;;;;;;32.74;35.24;101614.72;5000794;28;20029;-47
2023/06/21 10:48:36;;;;;;;4.25;3.85;;;;;;;33.05;33.56;101619.91;5003922;28;20033;-47
2023/06/21 10:51:02;;;;;;;4.53;3.70;;;;;;;33.36;33.32;101615.78;5002513;28;20105;-46
2023/06/21 10:53:35;;;;;;;4.38;3.80;;;;;;;33.28;35.55;101614.25;5002956;28;20581;-48
2023/06/21 10:56:02;;;;;;;4.30;3.88;;;;;;;33.13;35.83;101603.00;5004039;28;20022;-47
2023/06/21 10:58:31;;;;;;;4.10;3.67;;;;;;;32.94;34.38;101617.00;5002328;28;20034;-47
2023/06/21 11:00:58;;;;;;;6.93;4.53;;;;;;;32.85;34.29;101623.97;5001009;28;20042;-48
2023/06/21 11:03:27;;;;;;;4.13;3.30;;;;;;;32.91;32.60;101616.63;4995798;28;20169;-47
2023/06/21 11:06:16;;;;;;;3.05;2.75;;;;;;;33.03;33.44;101622.09;4994745;28;20046;-46
2023/06/21 11:08:41;;;;;;;4.32;2.70;;;;;;;33.24;31.41;101631.53;4993993;28;20125;-47
2023/06/21 11:11:07;;;;;;;7.57;2.50;;;;;;;33.24;32.78;101634.28;4995731;28;20113;-46